sensor_id;sensor_type;location;lat;lon;timestamp;pressure;altitude;pressure_sealevel;temperature;humidity
63115;BME280;49208;50.874;6.466;2023-01-08T07:02:54;99262.56;;;7.08;100.00
63115;BME280;49208;50.874;6.466;2023-01-08T07:05:20;99274.94;;;7.08;100.00
63115;BME280;49208;50.874;6.466;2023-01-08T07:07:46;99278.44;;;7.08;100.00
63115;BME280;49208;50.874;6.466;2023-01-08T07:10:11;99268.59;;;7.12;100.00
63115;BME280;49208;50.874;6.466;2023-01-08T07:12:36;99264.09;;;7.14;100.00
63115;BME280;49208;50.874;6.466;2023-01-08T07:15:02;99261.28;;;7.19;100.00
63115;BME280;49208;50.874;6.466;2023-01-08T07:17:28;99252.38;;;7.20;99.69
63115;BME280;49208;50.874;6.466;2023-01-08T07:19:53;99257.69;;;7.20;99.31
63115;BME280;49208;50.874;6.466;2023-01-08T07:22:19;99255.03;;;7.20;99.10
63115;BME280;49208;50.874;6.466;2023-01-08T07:24:45;99257.63;;;7.21;99.13
63115;BME280;49208;50.874;6.466;2023-01-08T07:27:10;99260.28;;;7.21;98.93
63115;BME280;49208;50.874;6.466;2023-01-08T07:29:36;99277.94;;;7.21;99.06
63115;BME280;49208;50.874;6.466;2023-01-08T07:32:01;99268.22;;;7.21;99.58
63115;BME280;49208;50.874;6.466;2023-01-08T07:34:27;99261.22;;;7.20;99.91
63115;BME280;49208;50.874;6.466;2023-01-08T07:36:52;99258.63;;;7.19;99.89
63115;BME280;49208;50.874;6.466;2023-01-08T07:39:17;99259.41;;;7.21;99.33
63115;BME280;49208;50.874;6.466;2023-01-08T07:41:43;99255.91;;;7.20;98.88
63115;BME280;49208;50.874;6.466;2023-01-08T07:44:09;99250.50;;;7.23;98.03
63115;BME280;49208;50.874;6.466;2023-01-08T07:46:34;99249.50;;;7.26;96.76
63115;BME280;49208;50.874;6.466;2023-01-08T07:49:00;99247.72;;;7.26;97.17
63115;BME280;49208;50.874;6.466;2023-01-08T07:51:25;99244.28;;;7.24;97.13
63115;BME280;49208;50.874;6.466;2023-01-08T07:53:50;99245.19;;;7.23;97.32
63115;BME280;49208;50.874;6.466;2023-01-08T07:56:16;99254.00;;;7.24;96.92
63115;BME280;49208;50.874;6.466;2023-01-08T07:58:41;99249.56;;;7.24;97.46
63115;BME280;49208;50.874;6.466;2023-01-08T08:01:09;99245.25;;;7.22;97.53
63115;BME280;49208;50.874;6.466;2023-01-08T08:03:35;99246.19;;;7.21;97.38
63115;BME280;49208;50.874;6.466;2023-01-08T08:06:01;99245.38;;;7.19;97.76
63115;BME280;49208;50.874;6.466;2023-01-08T08:08:26;99234.13;;;7.14;97.55
63115;BME280;49208;50.874;6.466;2023-01-08T08:10:52;99243.84;;;7.13;96.78
63115;BME280;49208;50.874;6.466;2023-01-08T08:13:17;99244.03;;;7.08;97.27
63115;BME280;49208;50.874;6.466;2023-01-08T08:15:42;99249.44;;;7.05;97.65
63115;BME280;49208;50.874;6.466;2023-01-08T08:18:08;99247.94;;;7.00;98.43
63115;BME280;49208;50.874;6.466;2023-01-08T08:20:34;99240.91;;;6.99;98.65
63115;BME280;49208;50.874;6.466;2023-01-08T08:23:01;99254.22;;;6.97;98.69
63115;BME280;49208;50.874;6.466;2023-01-08T08:25:26;99247.94;;;7.00;98.60
63115;BME280;49208;50.874;6.466;2023-01-08T08:27:57;99240.84;;;7.00;98.39
63115;BME280;49208;50.874;6.466;2023-01-08T08:30:24;99239.06;;;7.01;98.79
63115;BME280;49208;50.874;6.466;2023-01-08T08:32:51;99231.91;;;7.03;98.23
63115;BME280;49208;50.874;6.466;2023-01-08T08:35:16;99222.19;;;7.03;98.34
63115;BME280;49208;50.874;6.466;2023-01-08T08:37:41;99224.72;;;7.06;96.90
63115;BME280;49208;50.874;6.466;2023-01-08T08:40:07;99225.53;;;7.08;96.22
63115;BME280;49208;50.874;6.466;2023-01-08T08:42:33;99216.63;;;7.09;96.38
63115;BME280;49208;50.874;6.466;2023-01-08T08:44:58;99208.69;;;7.09;96.21
63115;BME280;49208;50.874;6.466;2023-01-08T08:47:24;99206.06;;;7.09;95.45
63115;BME280;49208;50.874;6.466;2023-01-08T08:49:49;99196.41;;;7.08;95.68
63115;BME280;49208;50.874;6.466;2023-01-08T08:52:15;99195.66;;;7.05;96.07
63115;BME280;49208;50.874;6.466;2023-01-08T08:54:41;99201.97;;;7.02;95.86
63115;BME280;49208;50.874;6.466;2023-01-08T08:57:08;99199.44;;;6.99;96.12
63115;BME280;49208;50.874;6.466;2023-01-08T08:59:34;99197.78;;;6.97;96.21
63115;BME280;49208;50.874;6.466;2023-01-08T09:02:00;99196.91;;;6.96;96.13
63115;BME280;49208;50.874;6.466;2023-01-08T09:04:25;99195.22;;;6.95;96.63
63115;BME280;49208;50.874;6.466;2023-01-08T09:06:53;99203.00;;;6.98;97.59
63115;BME280;49208;50.874;6.466;2023-01-08T09:09:18;99201.00;;;7.46;97.20
63115;BME280;49208;50.874;6.466;2023-01-08T09:11:44;99197.84;;;8.56;93.77
63115;BME280;49208;50.874;6.466;2023-01-08T09:14:09;99192.00;;;9.57;86.75
63115;BME280;49208;50.874;6.466;2023-01-08T09:16:34;99184.88;;;10.42;84.80
63115;BME280;49208;50.874;6.466;2023-01-08T09:19:01;99180.03;;;11.57;79.04
63115;BME280;49208;50.874;6.466;2023-01-08T09:21:26;99183.44;;;12.32;73.52
63115;BME280;49208;50.874;6.466;2023-01-08T09:23:52;99174.78;;;12.70;71.85
63115;BME280;49208;50.874;6.466;2023-01-08T09:26:17;99180.09;;;13.11;68.74
63115;BME280;49208;50.874;6.466;2023-01-08T09:28:42;99177.47;;;13.24;68.09
63115;BME280;49208;50.874;6.466;2023-01-08T09:31:08;99176.16;;;12.90;67.57
63115;BME280;49208;50.874;6.466;2023-01-08T09:33:33;99184.47;;;12.44;68.60
63115;BME280;49208;50.874;6.466;2023-01-08T09:35:58;99173.34;;;11.94;70.30
63115;BME280;49208;50.874;6.466;2023-01-08T09:38:24;99174.63;;;11.58;71.81
63115;BME280;49208;50.874;6.466;2023-01-08T09:40:54;99168.97;;;11.48;73.55
63115;BME280;49208;50.874;6.466;2023-01-08T09:43:22;99161.66;;;11.22;73.95
63115;BME280;49208;50.874;6.466;2023-01-08T09:45:51;99161.94;;;11.17;75.05
63115;BME280;49208;50.874;6.466;2023-01-08T09:48:23;99168.25;;;11.00;73.38
63115;BME280;49208;50.874;6.466;2023-01-08T09:50:49;99164.47;;;10.88;74.61
63115;BME280;49208;50.874;6.466;2023-01-08T09:53:16;99161.31;;;10.66;75.70
63115;BME280;49208;50.874;6.466;2023-01-08T09:55:43;99162.88;;;10.38;76.68
63115;BME280;49208;50.874;6.466;2023-01-08T09:58:23;99171.13;;;10.34;78.58
63115;BME280;49208;50.874;6.466;2023-01-08T10:00:53;99169.34;;;10.50;79.10
63115;BME280;49208;50.874;6.466;2023-01-08T10:03:19;99156.97;;;10.65;77.28
63115;BME280;49208;50.874;6.466;2023-01-08T10:05:45;99148.38;;;10.76;76.73
63115;BME280;49208;50.874;6.466;2023-01-08T10:08:13;99148.59;;;10.87;77.58
63115;BME280;49208;50.874;6.466;2023-01-08T10:10:38;99139.91;;;10.99;76.95
63115;BME280;49208;50.874;6.466;2023-01-08T10:13:05;99139.47;;;11.07;77.46
63115;BME280;49208;50.874;6.466;2023-01-08T10:15:31;99137.41;;;11.26;76.64
63115;BME280;49208;50.874;6.466;2023-01-08T10:18:06;99129.94;;;11.47;76.06
63115;BME280;49208;50.874;6.466;2023-01-08T10:20:34;99121.19;;;11.60;74.38
63115;BME280;49208;50.874;6.466;2023-01-08T10:23:18;99114.94;;;11.75;74.50
63115;BME280;49208;50.874;6.466;2023-01-08T10:25:58;99104.09;;;11.92;73.71
63115;BME280;49208;50.874;6.466;2023-01-08T10:28:25;99107.53;;;12.09;70.87
63115;BME280;49208;50.874;6.466;2023-01-08T10:30:52;99104.63;;;12.26;73.18
63115;BME280;49208;50.874;6.466;2023-01-08T10:33:28;99103.78;;;12.26;71.51
63115;BME280;49208;50.874;6.466;2023-01-08T10:35:59;99099.81;;;12.19;71.93
63115;BME280;49208;50.874;6.466;2023-01-08T10:38:41;99097.44;;;12.14;72.81
63115;BME280;49208;50.874;6.466;2023-01-08T10:41:11;99093.22;;;12.24;72.72
63115;BME280;49208;50.874;6.466;2023-01-08T10:46:29;99085.69;;;12.58;69.89
63115;BME280;49208;50.874;6.466;2023-01-08T10:49:00;99072.78;;;12.65;69.32
63115;BME280;49208;50.874;6.466;2023-01-08T10:51:28;99067.47;;;12.78;69.18
63115;BME280;49208;50.874;6.466;2023-01-08T10:53:58;99075.84;;;12.86;66.80
63115;BME280;49208;50.874;6.466;2023-01-08T10:56:27;99060.06;;;12.96;66.59
63115;BME280;49208;50.874;6.466;2023-01-08T10:58:53;99066.13;;;12.85;64.90
63115;BME280;49208;50.874;6.466;2023-01-08T11:01:28;99057.94;;;12.61;66.94
63115;BME280;49208;50.874;6.466;2023-01-08T11:03:56;99056.97;;;12.34;67.98
63115;BME280;49208;50.874;6.466;2023-01-08T11:06:26;99048.84;;;12.09;68.15
63115;BME280;49208;50.874;6.466;2023-01-08T11:08:54;99060.41;;;11.81;69.58
63115;BME280;49208;50.874;6.466;2023-01-08T11:11:21;99045.63;;;11.61;71.46
63115;BME280;49208;50.874;6.466;2023-01-08T11:14:02;99049.22;;;11.45;72.41
63115;BME280;49208;50.874;6.466;2023-01-08T11:16:33;99045.81;;;11.29;71.19
63115;BME280;49208;50.874;6.466;2023-01-08T11:18:59;99043.91;;;11.17;72.60
63115;BME280;49208;50.874;6.466;2023-01-08T11:21:28;99048.25;;;11.03;72.26
63115;BME280;49208;50.874;6.466;2023-01-08T11:24:20;99040.91;;;10.92;73.71
63115;BME280;49208;50.874;6.466;2023-01-08T11:26:53;99043.25;;;10.83;75.20
63115;BME280;49208;50.874;6.466;2023-01-08T11:29:28;99047.06;;;10.93;76.04
63115;BME280;49208;50.874;6.466;2023-01-08T11:32:23;99050.97;;;11.02;75.57
63115;BME280;49208;50.874;6.466;2023-01-08T11:37:22;99044.13;;;10.98;72.26
63115;BME280;49208;50.874;6.466;2023-01-08T11:39:50;99046.66;;;10.85;70.89
63115;BME280;49208;50.874;6.466;2023-01-08T11:42:29;99042.84;;;10.75;71.58
63115;BME280;49208;50.874;6.466;2023-01-08T11:53:28;99024.50;;;10.40;75.16
63115;BME280;49208;50.874;6.466;2023-01-08T11:56:58;99022.47;;;10.43;75.69
63115;BME280;49208;50.874;6.466;2023-01-08T12:02:03;99017.28;;;10.72;75.88
63115;BME280;49208;50.874;6.466;2023-01-08T12:10:07;99014.13;;;10.65;75.38
63115;BME280;49208;50.874;6.466;2023-01-08T12:15:53;98998.44;;;10.61;74.29
63115;BME280;49208;50.874;6.466;2023-01-08T12:18:43;99000.16;;;10.76;73.88
63115;BME280;49208;50.874;6.466;2023-01-08T12:26:25;98991.91;;;10.81;68.57
63115;BME280;49208;50.874;6.466;2023-01-08T12:34:36;98978.94;;;10.60;70.64
63115;BME280;49208;50.874;6.466;2023-01-08T12:37:17;98982.06;;;10.52;69.72
63115;BME280;49208;50.874;6.466;2023-01-08T12:40:02;98977.09;;;10.46;70.06
63115;BME280;49208;50.874;6.466;2023-01-08T12:42:33;98981.72;;;10.43;70.56
63115;BME280;49208;50.874;6.466;2023-01-08T12:45:02;98977.47;;;10.40;71.43
63115;BME280;49208;50.874;6.466;2023-01-08T12:47:31;98982.69;;;10.42;71.96
63115;BME280;49208;50.874;6.466;2023-01-08T12:58:10;98970.56;;;10.66;69.47
63115;BME280;49208;50.874;6.466;2023-01-08T13:00:56;98966.50;;;10.61;69.52
63115;BME280;49208;50.874;6.466;2023-01-08T13:03:26;98967.88;;;10.52;69.88
63115;BME280;49208;50.874;6.466;2023-01-08T13:06:04;98965.50;;;10.47;69.03
63115;BME280;49208;50.874;6.466;2023-01-08T13:08:37;98960.91;;;10.35;70.91
63115;BME280;49208;50.874;6.466;2023-01-08T13:11:05;98951.50;;;10.29;69.27
63115;BME280;49208;50.874;6.466;2023-01-08T13:13:37;98951.72;;;10.25;68.87
63115;BME280;49208;50.874;6.466;2023-01-08T13:18:59;98947.59;;;10.35;68.93
63115;BME280;49208;50.874;6.466;2023-01-08T13:21:42;98942.03;;;10.40;69.55
63115;BME280;49208;50.874;6.466;2023-01-08T13:24:32;98942.31;;;10.49;70.04
63115;BME280;49208;50.874;6.466;2023-01-08T13:27:11;98941.03;;;10.57;69.91
63115;BME280;49208;50.874;6.466;2023-01-08T13:29:50;98941.41;;;10.65;69.17
63115;BME280;49208;50.874;6.466;2023-01-08T13:34:47;98929.81;;;10.66;67.23
63115;BME280;49208;50.874;6.466;2023-01-08T13:37:23;98932.69;;;10.63;69.10
63115;BME280;49208;50.874;6.466;2023-01-08T13:39:48;98935.88;;;10.54;69.13
63115;BME280;49208;50.874;6.466;2023-01-08T13:42:22;98934.53;;;10.46;67.20
63115;BME280;49208;50.874;6.466;2023-01-08T13:44:51;98920.06;;;10.36;68.51
63115;BME280;49208;50.874;6.466;2023-01-08T13:47:28;98928.53;;;10.27;70.50
63115;BME280;49208;50.874;6.466;2023-01-08T13:49:54;98923.28;;;10.11;70.41
63115;BME280;49208;50.874;6.466;2023-01-08T13:55:20;98913.03;;;9.89;70.86
63115;BME280;49208;50.874;6.466;2023-01-08T13:57:52;98909.94;;;9.81;70.70
63115;BME280;49208;50.874;6.466;2023-01-08T14:00:25;98905.75;;;9.77;71.17
63115;BME280;49208;50.874;6.466;2023-01-08T14:02:53;98900.00;;;9.68;71.39
63115;BME280;49208;50.874;6.466;2023-01-08T14:05:31;98890.59;;;9.63;72.65
63115;BME280;49208;50.874;6.466;2023-01-08T14:07:59;98895.31;;;9.58;73.87
63115;BME280;49208;50.874;6.466;2023-01-08T14:10:26;98877.91;;;9.52;73.72
63115;BME280;49208;50.874;6.466;2023-01-08T14:12:52;98886.16;;;9.47;74.26
63115;BME280;49208;50.874;6.466;2023-01-08T14:15:26;98880.16;;;9.44;75.29
63115;BME280;49208;50.874;6.466;2023-01-08T14:17:54;98870.56;;;9.41;74.95
63115;BME280;49208;50.874;6.466;2023-01-08T14:20:27;98862.78;;;9.38;74.92
63115;BME280;49208;50.874;6.466;2023-01-08T14:22:54;98864.81;;;9.33;76.16
63115;BME280;49208;50.874;6.466;2023-01-08T14:25:20;98864.75;;;9.35;75.88
63115;BME280;49208;50.874;6.466;2023-01-08T14:27:54;98861.25;;;9.34;75.35
63115;BME280;49208;50.874;6.466;2023-01-08T14:30:20;98857.63;;;9.35;75.15
63115;BME280;49208;50.874;6.466;2023-01-08T14:32:46;98855.03;;;9.34;75.39
63115;BME280;49208;50.874;6.466;2023-01-08T14:35:15;98859.00;;;9.26;76.26
63115;BME280;49208;50.874;6.466;2023-01-08T14:37:42;98858.38;;;9.21;76.34
63115;BME280;49208;50.874;6.466;2023-01-08T14:40:15;98853.34;;;9.17;76.74
63115;BME280;49208;50.874;6.466;2023-01-08T14:42:43;98858.75;;;9.15;76.18
63115;BME280;49208;50.874;6.466;2023-01-08T14:45:27;98850.09;;;9.12;75.83
63115;BME280;49208;50.874;6.466;2023-01-08T14:48:20;98847.09;;;9.02;76.79
63115;BME280;49208;50.874;6.466;2023-01-08T14:51:00;98849.03;;;8.98;76.69
63115;BME280;49208;50.874;6.466;2023-01-08T14:53:31;98856.06;;;8.99;74.78
63115;BME280;49208;50.874;6.466;2023-01-08T14:55:57;98857.09;;;8.97;76.26
63115;BME280;49208;50.874;6.466;2023-01-08T14:58:25;98860.53;;;8.99;76.48
63115;BME280;49208;50.874;6.466;2023-01-08T15:01:04;98855.13;;;9.00;76.47
63115;BME280;49208;50.874;6.466;2023-01-08T15:05:57;98845.53;;;8.98;76.15
63115;BME280;49208;50.874;6.466;2023-01-08T15:08:25;98839.53;;;8.94;76.32
63115;BME280;49208;50.874;6.466;2023-01-08T15:13:33;98840.56;;;8.92;76.20
63115;BME280;49208;50.874;6.466;2023-01-08T15:16:11;98831.91;;;8.88;76.81
63115;BME280;49208;50.874;6.466;2023-01-08T15:18:46;98839.28;;;8.83;76.45
63115;BME280;49208;50.874;6.466;2023-01-08T15:21:19;98838.84;;;8.75;77.02
63115;BME280;49208;50.874;6.466;2023-01-08T15:23:50;98835.72;;;8.66;77.67
63115;BME280;49208;50.874;6.466;2023-01-08T15:26:18;98841.53;;;8.57;77.65
63115;BME280;49208;50.874;6.466;2023-01-08T15:31:28;98830.63;;;8.46;76.59
63115;BME280;49208;50.874;6.466;2023-01-08T15:33:55;98830.13;;;8.38;77.35
63115;BME280;49208;50.874;6.466;2023-01-08T15:36:21;98830.47;;;8.32;77.50
63115;BME280;49208;50.874;6.466;2023-01-08T15:38:47;98830.00;;;8.23;78.31
63115;BME280;49208;50.874;6.466;2023-01-08T15:41:18;98839.22;;;8.16;78.51
63115;BME280;49208;50.874;6.466;2023-01-08T15:44:03;98838.59;;;8.11;78.51
63115;BME280;49208;50.874;6.466;2023-01-08T15:46:28;98828.16;;;8.08;78.09
63115;BME280;49208;50.874;6.466;2023-01-08T15:48:53;98831.13;;;8.02;79.23
63115;BME280;49208;50.874;6.466;2023-01-08T15:51:19;98832.34;;;7.95;78.98
63115;BME280;49208;50.874;6.466;2023-01-08T15:53:44;98823.72;;;7.91;78.93
63115;BME280;49208;50.874;6.466;2023-01-08T15:56:10;98816.69;;;7.90;78.72
63115;BME280;49208;50.874;6.466;2023-01-08T15:58:35;98828.38;;;7.86;78.69
63115;BME280;49208;50.874;6.466;2023-01-08T16:01:00;98832.91;;;7.84;79.36
63115;BME280;49208;50.874;6.466;2023-01-08T16:03:26;98826.03;;;7.80;79.30
63115;BME280;49208;50.874;6.466;2023-01-08T16:05:54;98828.09;;;7.75;79.64
63115;BME280;49208;50.874;6.466;2023-01-08T16:08:19;98827.44;;;7.69;80.66
63115;BME280;49208;50.874;6.466;2023-01-08T16:10:53;98829.22;;;7.69;80.83
63115;BME280;49208;50.874;6.466;2023-01-08T16:13:18;98821.53;;;7.64;81.50
63115;BME280;49208;50.874;6.466;2023-01-08T16:15:44;98822.63;;;7.60;81.85
63115;BME280;49208;50.874;6.466;2023-01-08T16:18:10;98818.09;;;7.62;81.58
63115;BME280;49208;50.874;6.466;2023-01-08T16:20:36;98814.59;;;7.62;81.90
63115;BME280;49208;50.874;6.466;2023-01-08T16:23:01;98807.44;;;7.64;81.80
63115;BME280;49208;50.874;6.466;2023-01-08T16:25:27;98803.41;;;7.74;81.45
63115;BME280;49208;50.874;6.466;2023-01-08T16:27:52;98804.84;;;7.80;81.11
63115;BME280;49208;50.874;6.466;2023-01-08T16:30:18;98800.56;;;7.77;81.42
63115;BME280;49208;50.874;6.466;2023-01-08T16:32:44;98793.59;;;7.76;81.48
63115;BME280;49208;50.874;6.466;2023-01-08T16:35:11;98789.91;;;7.79;80.92
63115;BME280;49208;50.874;6.466;2023-01-08T16:37:36;98791.00;;;7.75;81.10
63115;BME280;49208;50.874;6.466;2023-01-08T16:40:02;98784.94;;;7.73;80.90
63115;BME280;49208;50.874;6.466;2023-01-08T16:42:28;98780.78;;;7.67;81.39
63115;BME280;49208;50.874;6.466;2023-01-08T16:44:53;98786.38;;;7.61;81.91
63115;BME280;49208;50.874;6.466;2023-01-08T16:47:19;98778.69;;;7.56;82.22
63115;BME280;49208;50.874;6.466;2023-01-08T16:49:44;98780.69;;;7.51;82.66
63115;BME280;49208;50.874;6.466;2023-01-08T16:52:09;98773.06;;;7.45;83.19
63115;BME280;49208;50.874;6.466;2023-01-08T16:54:35;98767.06;;;7.41;83.50
63115;BME280;49208;50.874;6.466;2023-01-08T16:57:01;98769.66;;;7.43;83.41
63115;BME280;49208;50.874;6.466;2023-01-08T16:59:26;98768.78;;;7.42;84.15
63115;BME280;49208;50.874;6.466;2023-01-08T17:01:52;98765.44;;;7.39;84.00
63115;BME280;49208;50.874;6.466;2023-01-08T17:04:17;98765.59;;;7.36;84.02
63115;BME280;49208;50.874;6.466;2023-01-08T17:06:43;98763.94;;;7.33;84.23
63115;BME280;49208;50.874;6.466;2023-01-08T17:09:08;98767.63;;;7.31;84.88
63115;BME280;49208;50.874;6.466;2023-01-08T17:11:33;98750.72;;;7.33;84.65
63115;BME280;49208;50.874;6.466;2023-01-08T17:13:59;98749.63;;;7.37;85.12
63115;BME280;49208;50.874;6.466;2023-01-08T17:16:24;98740.53;;;7.43;84.59
63115;BME280;49208;50.874;6.466;2023-01-08T17:18:50;98744.72;;;7.47;84.61
63115;BME280;49208;50.874;6.466;2023-01-08T17:21:15;98744.41;;;7.53;84.14
63115;BME280;49208;50.874;6.466;2023-01-08T17:23:43;98741.53;;;7.58;84.16
63115;BME280;49208;50.874;6.466;2023-01-08T17:26:11;98748.47;;;7.60;84.23
63115;BME280;49208;50.874;6.466;2023-01-08T17:28:38;98735.84;;;7.65;84.30
63115;BME280;49208;50.874;6.466;2023-01-08T17:31:07;98738.81;;;7.77;83.54
63115;BME280;49208;50.874;6.466;2023-01-08T17:33:33;98736.09;;;7.78;83.70
63115;BME280;49208;50.874;6.466;2023-01-08T17:36:00;98729.06;;;7.77;83.37
63115;BME280;49208;50.874;6.466;2023-01-08T17:38:26;98730.94;;;7.75;83.45
63115;BME280;49208;50.874;6.466;2023-01-08T17:40:52;98730.22;;;7.72;83.80
63115;BME280;49208;50.874;6.466;2023-01-08T17:43:18;98730.94;;;7.75;83.37
63115;BME280;49208;50.874;6.466;2023-01-08T17:45:43;98719.50;;;7.75;83.26
63115;BME280;49208;50.874;6.466;2023-01-08T17:48:09;98718.66;;;7.74;83.49
63115;BME280;49208;50.874;6.466;2023-01-08T17:50:37;98718.72;;;7.73;83.44
63115;BME280;49208;50.874;6.466;2023-01-08T17:53:03;98711.09;;;7.66;83.69
63115;BME280;49208;50.874;6.466;2023-01-08T17:55:28;98706.19;;;7.59;83.99
63115;BME280;49208;50.874;6.466;2023-01-08T17:57:53;98705.78;;;7.49;84.61
63115;BME280;49208;50.874;6.466;2023-01-08T18:00:19;98696.38;;;7.43;84.51
63115;BME280;49208;50.874;6.466;2023-01-08T18:02:44;98693.09;;;7.38;84.89
63115;BME280;49208;50.874;6.466;2023-01-08T18:05:10;98691.53;;;7.34;84.76
63115;BME280;49208;50.874;6.466;2023-01-08T18:07:36;98690.09;;;7.28;84.88
63115;BME280;49208;50.874;6.466;2023-01-08T18:10:03;98691.16;;;7.24;85.18
63115;BME280;49208;50.874;6.466;2023-01-08T18:12:28;98686.31;;;7.15;85.44
63115;BME280;49208;50.874;6.466;2023-01-08T18:14:54;98685.91;;;7.05;85.98
63115;BME280;49208;50.874;6.466;2023-01-08T18:17:20;98673.94;;;6.98;86.47
63115;BME280;49208;50.874;6.466;2023-01-08T18:19:45;98690.16;;;6.91;86.59
63115;BME280;49208;50.874;6.466;2023-01-08T18:22:12;98684.25;;;6.85;87.25
63115;BME280;49208;50.874;6.466;2023-01-08T18:24:38;98685.47;;;6.78;87.82
63115;BME280;49208;50.874;6.466;2023-01-08T18:27:03;98689.13;;;6.76;88.15
63115;BME280;49208;50.874;6.466;2023-01-08T18:29:28;98686.78;;;6.70;88.65
63115;BME280;49208;50.874;6.466;2023-01-08T18:31:54;98678.91;;;6.68;89.20
63115;BME280;49208;50.874;6.466;2023-01-08T18:34:19;98676.22;;;6.70;89.43
63115;BME280;49208;50.874;6.466;2023-01-08T18:36:45;98676.22;;;6.70;89.32
63115;BME280;49208;50.874;6.466;2023-01-08T18:39:11;98669.06;;;6.72;89.52
63115;BME280;49208;50.874;6.466;2023-01-08T18:41:37;98666.28;;;6.75;89.72
63115;BME280;49208;50.874;6.466;2023-01-08T18:44:21;98674.13;;;6.76;89.63
63115;BME280;49208;50.874;6.466;2023-01-08T18:46:47;98664.13;;;6.83;89.46
63115;BME280;49208;50.874;6.466;2023-01-08T18:49:12;98659.50;;;6.86;89.44
63115;BME280;49208;50.874;6.466;2023-01-08T18:51:38;98654.16;;;6.88;89.41
63115;BME280;49208;50.874;6.466;2023-01-08T18:54:03;98651.44;;;6.90;89.28
63115;BME280;49208;50.874;6.466;2023-01-08T18:56:31;98646.00;;;6.93;89.13
63115;BME280;49208;50.874;6.466;2023-01-08T18:58:57;98633.94;;;6.87;89.08
63115;BME280;49208;50.874;6.466;2023-01-08T19:01:24;98634.03;;;6.85;89.50
63115;BME280;49208;50.874;6.466;2023-01-08T19:03:49;98634.31;;;6.79;89.55
63115;BME280;49208;50.874;6.466;2023-01-08T19:06:15;98630.03;;;6.77;89.86
63115;BME280;49208;50.874;6.466;2023-01-08T19:08:42;98626.75;;;6.72;90.33
63115;BME280;49208;50.874;6.466;2023-01-08T19:11:08;98620.69;;;6.70;90.66
63115;BME280;49208;50.874;6.466;2023-01-08T19:13:33;98624.41;;;6.65;90.93
63115;BME280;49208;50.874;6.466;2023-01-08T19:16:05;98621.16;;;6.60;91.46
63115;BME280;49208;50.874;6.466;2023-01-08T19:18:32;98621.22;;;6.59;91.47
63115;BME280;49208;50.874;6.466;2023-01-08T19:20:58;98608.78;;;6.61;91.30
63115;BME280;49208;50.874;6.466;2023-01-08T19:23:23;98596.81;;;6.54;91.29
63115;BME280;49208;50.874;6.466;2023-01-08T19:25:49;98596.72;;;6.55;91.75
63115;BME280;49208;50.874;6.466;2023-01-08T19:28:14;98595.09;;;6.53;91.64
63115;BME280;49208;50.874;6.466;2023-01-08T19:30:40;98587.16;;;6.53;92.03
63115;BME280;49208;50.874;6.466;2023-01-08T19:33:06;98581.25;;;6.47;92.62
63115;BME280;49208;50.874;6.466;2023-01-08T19:35:36;98569.91;;;6.45;92.95
63115;BME280;49208;50.874;6.466;2023-01-08T19:38:02;98565.41;;;6.47;92.92
63115;BME280;49208;50.874;6.466;2023-01-08T19:40:27;98575.09;;;6.47;93.51
63115;BME280;49208;50.874;6.466;2023-01-08T19:42:52;98567.03;;;6.50;93.79
63115;BME280;49208;50.874;6.466;2023-01-08T19:45:37;98562.59;;;6.51;93.25
63115;BME280;49208;50.874;6.466;2023-01-08T19:48:02;98558.84;;;6.55;93.55
63115;BME280;49208;50.874;6.466;2023-01-08T19:50:28;98561.13;;;6.62;93.29
63115;BME280;49208;50.874;6.466;2023-01-08T19:52:56;98573.16;;;6.68;93.23
63115;BME280;49208;50.874;6.466;2023-01-08T19:55:21;98566.00;;;6.70;93.21
63115;BME280;49208;50.874;6.466;2023-01-08T19:57:48;98560.72;;;6.70;93.43
63115;BME280;49208;50.874;6.466;2023-01-08T20:00:14;98555.22;;;6.75;93.50
63115;BME280;49208;50.874;6.466;2023-01-08T20:02:39;98555.13;;;6.76;93.44
63115;BME280;49208;50.874;6.466;2023-01-08T20:05:05;98554.34;;;6.74;93.50
63115;BME280;49208;50.874;6.466;2023-01-08T20:07:30;98550.00;;;6.73;93.44
63115;BME280;49208;50.874;6.466;2023-01-08T20:09:55;98552.41;;;6.78;93.39
63115;BME280;49208;50.874;6.466;2023-01-08T20:12:22;98544.56;;;6.76;93.70
63115;BME280;49208;50.874;6.466;2023-01-08T20:14:47;98534.75;;;6.78;93.89
63115;BME280;49208;50.874;6.466;2023-01-08T20:17:13;98525.66;;;6.84;93.76
63115;BME280;49208;50.874;6.466;2023-01-08T20:19:38;98514.25;;;6.83;93.36
63115;BME280;49208;50.874;6.466;2023-01-08T20:22:04;98512.63;;;6.81;93.36
63115;BME280;49208;50.874;6.466;2023-01-08T20:24:29;98512.63;;;6.81;93.55
63115;BME280;49208;50.874;6.466;2023-01-08T20:26:55;98513.53;;;6.80;93.57
63115;BME280;49208;50.874;6.466;2023-01-08T20:29:20;98503.81;;;6.80;93.72
63115;BME280;49208;50.874;6.466;2023-01-08T20:31:48;98502.94;;;6.80;93.80
63115;BME280;49208;50.874;6.466;2023-01-08T20:34:14;98497.66;;;6.80;93.69
63115;BME280;49208;50.874;6.466;2023-01-08T20:36:41;98492.38;;;6.80;93.74
63115;BME280;49208;50.874;6.466;2023-01-08T20:39:10;98490.69;;;6.79;93.84
63115;BME280;49208;50.874;6.466;2023-01-08T20:41:36;98496.97;;;6.76;93.77
63115;BME280;49208;50.874;6.466;2023-01-08T20:44:03;98487.41;;;6.74;93.81
63115;BME280;49208;50.874;6.466;2023-01-08T20:46:31;98488.34;;;6.73;94.33
63115;BME280;49208;50.874;6.466;2023-01-08T20:49:02;98484.38;;;6.81;94.10
63115;BME280;49208;50.874;6.466;2023-01-08T20:51:35;98486.78;;;6.86;94.21
63115;BME280;49208;50.874;6.466;2023-01-08T20:54:03;98481.47;;;6.86;94.48
63115;BME280;49208;50.874;6.466;2023-01-08T20:56:29;98480.38;;;6.90;94.66
63115;BME280;49208;50.874;6.466;2023-01-08T20:58:55;98480.06;;;6.96;94.41
63115;BME280;49208;50.874;6.466;2023-01-08T21:01:23;98474.53;;;7.01;94.34
63115;BME280;49208;50.874;6.466;2023-01-08T21:03:49;98471.50;;;7.08;93.85
63115;BME280;49208;50.874;6.466;2023-01-08T21:06:19;98465.94;;;7.13;93.82
63115;BME280;49208;50.874;6.466;2023-01-08T21:08:49;98464.84;;;7.17;93.90
63115;BME280;49208;50.874;6.466;2023-01-08T21:11:15;98457.69;;;7.19;93.41
63115;BME280;49208;50.874;6.466;2023-01-08T21:13:41;98455.41;;;7.29;92.81
63115;BME280;49208;50.874;6.466;2023-01-08T21:16:15;98452.69;;;7.31;92.89